Time;durP1;ratioP1;P1;durP2;ratioP2;P2;SDS_P1;SDS_P2;PMS_P1;PMS_P2;Temp;Humidity;BMP_temperature;BMP_pressure;BME280_temperature;BME280_humidity;BME280_pressure;Samples;Min_cycle;Max_cycle;Signal;HPM_P1;HPM_P2
2021/11/19 00:01:28;;;;;;;0.93;0.10;;;;;;;;;;5053375;28;20033;-64
2021/11/19 00:03:54;;;;;;;0.45;0.28;;;;;;;;;;5053363;28;20027;-65
2021/11/19 00:06:19;;;;;;;0.10;0.10;;;;;;;;;;5053220;28;20364;-65
2021/11/19 00:08:46;;;;;;;0.20;0.17;;;;;;;;;;5053480;28;20035;-65
2021/11/19 00:11:13;;;;;;;0.40;0.17;;;;;;;;;;5053215;28;20017;-64
2021/11/19 00:13:38;;;;;;;0.70;0.28;;;;;;;;;;5053327;28;20025;-64
2021/11/19 00:16:04;;;;;;;1.40;0.10;;;;;;;;;;5051797;28;20539;-66
2021/11/19 00:18:30;;;;;;;1.23;0.38;;;;;;;;;;5053196;28;20064;-64
2021/11/19 00:20:55;;;;;;;1.10;0.30;;;;;;;;;;5051883;28;20024;-65
2021/11/19 00:23:21;;;;;;;0.98;0.30;;;;;;;;;;5053265;28;20448;-64
2021/11/19 00:25:47;;;;;;;0.65;0.30;;;;;;;;;;5053092;28;20032;-64
2021/11/19 00:28:12;;;;;;;0.25;0.10;;;;;;;;;;5052762;28;20372;-65
2021/11/19 00:30:39;;;;;;;0.85;0.10;;;;;;;;;;5051928;28;20024;-64
2021/11/19 00:33:04;;;;;;;2.75;0.28;;;;;;;;;;5052936;28;20475;-64
2021/11/19 00:35:30;;;;;;;1.17;0.15;;;;;;;;;;5052629;28;20033;-64
2021/11/19 00:37:56;;;;;;;1.00;0.10;;;;;;;;;;5053056;28;20059;-65
2021/11/19 00:40:41;;;;;;;0.98;0.10;;;;;;;;;;5052628;28;20024;-64
2021/11/19 00:43:07;;;;;;;0.20;0.10;;;;;;;;;;5052312;28;20036;-64
2021/11/19 00:45:33;;;;;;;0.85;0.10;;;;;;;;;;5052965;28;20025;-65
2021/11/19 00:47:59;;;;;;;0.30;0.10;;;;;;;;;;5052624;28;20029;-65
2021/11/19 00:50:28;;;;;;;0.60;0.00;;;;;;;;;;5052992;28;20021;-65
2021/11/19 00:52:53;;;;;;;0.73;0.10;;;;;;;;;;5052684;28;20032;-65
2021/11/19 00:55:18;;;;;;;1.20;0.10;;;;;;;;;;5052829;28;20025;-65
2021/11/19 00:57:43;;;;;;;1.20;0.20;;;;;;;;;;5052828;28;20395;-65
2021/11/19 01:00:12;;;;;;;0.20;0.10;;;;;;;;;;5052385;28;20021;-65
2021/11/19 01:02:37;;;;;;;1.55;0.20;;;;;;;;;;5052733;28;20641;-65
2021/11/19 01:05:02;;;;;;;0.10;0.00;;;;;;;;;;5052618;28;20028;-65
2021/11/19 01:07:28;;;;;;;0.43;0.20;;;;;;;;;;5052742;28;20079;-65
2021/11/19 01:09:57;;;;;;;1.65;0.35;;;;;;;;;;5056517;28;20084;-65
2021/11/19 01:12:25;;;;;;;0.25;0.10;;;;;;;;;;5056726;28;20028;-66
2021/11/19 01:14:59;;;;;;;0.47;0.20;;;;;;;;;;5056444;28;20040;-65
2021/11/19 01:17:27;;;;;;;1.30;0.20;;;;;;;;;;5056741;28;20040;-65
2021/11/19 01:19:56;;;;;;;1.67;0.25;;;;;;;;;;5056300;28;20017;-65
2021/11/19 01:22:27;;;;;;;0.63;0.20;;;;;;;;;;5056592;28;20021;-65
2021/11/19 01:24:52;;;;;;;1.08;0.30;;;;;;;;;;5056425;28;20139;-65
2021/11/19 01:27:18;;;;;;;0.50;0.10;;;;;;;;;;5056253;28;20068;-65
2021/11/19 01:29:43;;;;;;;0.45;0.30;;;;;;;;;;5055963;28;20027;-65
2021/11/19 01:32:11;;;;;;;1.63;0.20;;;;;;;;;;5056188;28;20452;-65
2021/11/19 01:34:37;;;;;;;0.13;0.10;;;;;;;;;;5056412;28;20017;-65
2021/11/19 01:37:03;;;;;;;1.38;0.60;;;;;;;;;;5055951;28;20494;-65
2021/11/19 01:39:28;;;;;;;0.10;0.10;;;;;;;;;;5055990;28;20025;-65
2021/11/19 01:41:55;;;;;;;0.82;0.17;;;;;;;;;;5056253;28;20021;-65
2021/11/19 01:44:26;;;;;;;0.77;0.28;;;;;;;;;;5055935;28;20017;-65
2021/11/19 01:46:52;;;;;;;1.08;0.30;;;;;;;;;;5055948;28;20526;-65
2021/11/19 01:49:19;;;;;;;0.10;0.10;;;;;;;;;;5055877;28;20423;-65
2021/11/19 01:51:44;;;;;;;2.47;0.30;;;;;;;;;;5056003;28;20028;-65
2021/11/19 01:54:29;;;;;;;2.08;0.17;;;;;;;;;;5055813;28;20025;-65
2021/11/19 01:56:59;;;;;;;0.57;0.10;;;;;;;;;;5055808;28;20504;-65
2021/11/19 01:59:33;;;;;;;0.30;0.10;;;;;;;;;;5055888;28;20025;-65
2021/11/19 02:02:04;;;;;;;0.75;0.43;;;;;;;;;;5055500;28;20130;-65
2021/11/19 02:04:33;;;;;;;0.65;0.10;;;;;;;;;;5055620;28;20028;-65
2021/11/19 02:07:01;;;;;;;0.90;0.10;;;;;;;;;;5055626;28;20472;-65
2021/11/19 02:09:32;;;;;;;1.17;0.20;;;;;;;;;;5055536;28;20025;-65
2021/11/19 02:12:06;;;;;;;0.17;0.10;;;;;;;;;;5055447;28;20025;-65
2021/11/19 02:14:49;;;;;;;0.40;0.00;;;;;;;;;;5055422;28;20021;-65
2021/11/19 02:17:15;;;;;;;0.57;0.20;;;;;;;;;;5055148;28;20088;-65
2021/11/19 02:19:52;;;;;;;0.70;0.20;;;;;;;;;;5052877;28;20017;-65
2021/11/19 02:22:17;;;;;;;0.68;0.10;;;;;;;;;;5055414;28;20106;-65
2021/11/19 02:24:44;;;;;;;0.67;0.13;;;;;;;;;;5055276;28;20456;-65
2021/11/19 02:27:09;;;;;;;0.93;0.20;;;;;;;;;;5055220;28;20246;-65
2021/11/19 02:29:41;;;;;;;1.13;0.43;;;;;;;;;;5055057;28;20574;-65
2021/11/19 02:32:08;;;;;;;0.43;0.20;;;;;;;;;;5054856;28;20596;-65
2021/11/19 02:34:33;;;;;;;0.20;0.10;;;;;;;;;;5055146;28;20025;-65
2021/11/19 02:37:11;;;;;;;0.90;0.20;;;;;;;;;;5054923;28;20028;-65
2021/11/19 02:39:48;;;;;;;1.27;0.10;;;;;;;;;;5055034;28;20017;-65
2021/11/19 02:42:21;;;;;;;0.52;0.10;;;;;;;;;;5054805;28;20100;-65
2021/11/19 02:44:47;;;;;;;2.03;0.13;;;;;;;;;;5054987;28;20112;-65
2021/11/19 02:47:14;;;;;;;0.80;0.10;;;;;;;;;;5054582;28;20103;-65
2021/11/19 02:49:40;;;;;;;0.43;0.13;;;;;;;;;;5055003;28;20033;-65
2021/11/19 02:52:07;;;;;;;1.23;0.30;;;;;;;;;;5053240;28;20384;-65
2021/11/19 02:54:33;;;;;;;2.60;0.20;;;;;;;;;;5053670;28;20024;-65
2021/11/19 02:56:59;;;;;;;1.02;0.52;;;;;;;;;;5054520;28;20025;-65
2021/11/19 02:59:24;;;;;;;1.10;0.20;;;;;;;;;;5053394;28;20023;-65
2021/11/19 03:01:52;;;;;;;1.42;0.17;;;;;;;;;;5054222;28;20120;-65
2021/11/19 03:04:28;;;;;;;0.55;0.10;;;;;;;;;;5054617;28;20013;-66
2021/11/19 03:06:55;;;;;;;1.10;0.30;;;;;;;;;;5054593;28;20021;-65
2021/11/19 03:09:24;;;;;;;0.47;0.10;;;;;;;;;;5054529;28;20021;-66
2021/11/19 03:11:49;;;;;;;0.55;0.20;;;;;;;;;;5054507;28;20025;-65
2021/11/19 03:14:15;;;;;;;0.73;0.20;;;;;;;;;;5054218;28;20028;-66
2021/11/19 03:16:41;;;;;;;1.20;0.20;;;;;;;;;;5053956;28;20056;-65
2021/11/19 03:19:07;;;;;;;0.80;0.10;;;;;;;;;;5054022;28;20052;-64
2021/11/19 03:21:33;;;;;;;1.02;0.20;;;;;;;;;;5054059;28;20013;-65
2021/11/19 03:23:58;;;;;;;0.05;0.05;;;;;;;;;;5054126;28;20415;-65
2021/11/19 03:26:24;;;;;;;0.55;0.13;;;;;;;;;;5054067;28;20059;-64
2021/11/19 03:28:49;;;;;;;0.35;0.10;;;;;;;;;;5053994;28;20029;-65
2021/11/19 03:31:15;;;;;;;1.20;0.45;;;;;;;;;;5053299;28;20025;-66
2021/11/19 03:33:41;;;;;;;0.38;0.08;;;;;;;;;;5054198;28;20424;-65
2021/11/19 03:36:08;;;;;;;0.82;0.20;;;;;;;;;;5053453;28;20522;-65
2021/11/19 03:38:34;;;;;;;0.73;0.20;;;;;;;;;;5054084;28;20045;-64
2021/11/19 03:41:02;;;;;;;0.30;0.10;;;;;;;;;;5053631;28;20438;-66
2021/11/19 03:43:29;;;;;;;0.38;0.10;;;;;;;;;;5053867;28;20025;-65
2021/11/19 03:45:56;;;;;;;0.30;0.10;;;;;;;;;;5053699;28;20033;-65
2021/11/19 03:48:22;;;;;;;0.77;0.13;;;;;;;;;;5052457;28;20471;-65
2021/11/19 03:50:52;;;;;;;0.75;0.20;;;;;;;;;;5053842;28;20491;-65
2021/11/19 03:53:18;;;;;;;0.77;0.10;;;;;;;;;;5053741;28;20397;-66
2021/11/19 03:55:46;;;;;;;0.65;0.10;;;;;;;;;;5053409;28;20063;-64
2021/11/19 03:58:12;;;;;;;1.80;0.17;;;;;;;;;;5053341;28;20021;-65
2021/11/19 04:00:59;;;;;;;0.70;0.10;;;;;;;;;;5053636;28;20108;-65
2021/11/19 04:03:24;;;;;;;0.95;0.20;;;;;;;;;;5052736;28;20045;-64
2021/11/19 04:05:50;;;;;;;0.60;0.20;;;;;;;;;;5053146;28;20101;-65
2021/11/19 04:08:15;;;;;;;1.35;0.20;;;;;;;;;;5053349;28;20033;-65
2021/11/19 04:10:41;;;;;;;0.68;0.30;;;;;;;;;;5053203;28;20025;-65
2021/11/19 04:13:07;;;;;;;1.85;0.20;;;;;;;;;;5053171;28;20028;-66
2021/11/19 04:15:35;;;;;;;0.63;0.20;;;;;;;;;;5052151;28;20017;-65
2021/11/19 04:18:00;;;;;;;0.73;0.10;;;;;;;;;;5053209;28;20104;-65
2021/11/19 04:20:26;;;;;;;0.55;0.20;;;;;;;;;;5053005;28;20088;-65
2021/11/19 04:22:51;;;;;;;0.38;0.10;;;;;;;;;;5053271;28;20052;-65
2021/11/19 04:25:18;;;;;;;1.45;0.30;;;;;;;;;;5053152;28;20021;-66
2021/11/19 04:27:43;;;;;;;0.38;0.10;;;;;;;;;;5052930;28;20036;-65
2021/11/19 04:30:10;;;;;;;0.38;0.25;;;;;;;;;;5053037;28;20376;-65
2021/11/19 04:32:36;;;;;;;0.95;0.20;;;;;;;;;;5052991;28;20017;-66
2021/11/19 04:35:02;;;;;;;2.47;0.30;;;;;;;;;;5052807;28;20020;-65
2021/11/19 04:37:28;;;;;;;0.20;0.03;;;;;;;;;;5052840;28;20030;-65
2021/11/19 04:39:53;;;;;;;0.47;0.10;;;;;;;;;;5052904;28;20025;-64
2021/11/19 04:42:19;;;;;;;1.00;0.20;;;;;;;;;;5052641;28;20024;-65
2021/11/19 04:44:45;;;;;;;1.35;0.20;;;;;;;;;;5051180;28;20018;-66
2021/11/19 04:47:11;;;;;;;0.35;0.10;;;;;;;;;;5052612;28;20058;-64
2021/11/19 04:49:36;;;;;;;0.30;0.10;;;;;;;;;;5052826;28;20020;-66
2021/11/19 04:52:02;;;;;;;0.28;0.05;;;;;;;;;;5051654;28;20029;-65
2021/11/19 04:54:28;;;;;;;1.55;0.30;;;;;;;;;;5053297;28;20363;-65
2021/11/19 04:56:53;;;;;;;0.47;0.10;;;;;;;;;;5052620;28;20100;-65
2021/11/19 04:59:20;;;;;;;1.25;0.25;;;;;;;;;;5052737;28;20070;-64
2021/11/19 05:01:47;;;;;;;1.35;0.30;;;;;;;;;;5052390;28;20040;-66
2021/11/19 05:04:12;;;;;;;0.90;0.20;;;;;;;;;;5052611;28;20013;-65
2021/11/19 05:06:38;;;;;;;0.90;0.17;;;;;;;;;;5052519;28;20025;-65
2021/11/19 05:09:04;;;;;;;0.45;0.10;;;;;;;;;;5052611;28;20021;-65
2021/11/19 05:11:33;;;;;;;1.58;0.38;;;;;;;;;;5052623;28;20041;-65
2021/11/19 05:13:59;;;;;;;0.82;0.10;;;;;;;;;;5052714;28;20021;-65
2021/11/19 05:16:25;;;;;;;1.08;0.57;;;;;;;;;;5052463;28;20021;-65
2021/11/19 05:18:50;;;;;;;0.30;0.20;;;;;;;;;;5052722;28;20025;-65
2021/11/19 05:21:16;;;;;;;0.83;0.20;;;;;;;;;;5052403;28;20017;-66
2021/11/19 05:23:42;;;;;;;0.75;0.10;;;;;;;;;;5052696;28;20277;-67
2021/11/19 05:26:08;;;;;;;3.78;0.68;;;;;;;;;;5052244;28;20064;-65
2021/11/19 05:28:33;;;;;;;0.82;0.20;;;;;;;;;;5052730;28;20033;-66
2021/11/19 05:30:59;;;;;;;1.10;0.35;;;;;;;;;;5052062;28;20029;-65
2021/11/19 05:33:25;;;;;;;1.08;0.20;;;;;;;;;;5052635;28;20052;-65
2021/11/19 05:35:51;;;;;;;1.60;0.25;;;;;;;;;;5052346;28;20036;-65
2021/11/19 05:38:17;;;;;;;1.55;0.20;;;;;;;;;;5052453;28;20559;-64
2021/11/19 05:40:43;;;;;;;1.52;0.40;;;;;;;;;;5052666;28;20067;-66
2021/11/19 05:43:08;;;;;;;0.30;0.22;;;;;;;;;;5052443;28;20029;-65
2021/11/19 05:45:34;;;;;;;0.43;0.10;;;;;;;;;;5052186;28;20025;-65
2021/11/19 05:48:00;;;;;;;0.68;0.10;;;;;;;;;;5052270;28;20048;-66
2021/11/19 05:50:26;;;;;;;0.47;0.17;;;;;;;;;;5052398;28;20024;-65
2021/11/19 05:52:57;;;;;;;0.73;0.10;;;;;;;;;;5052011;28;20021;-66
2021/11/19 05:55:22;;;;;;;0.50;0.20;;;;;;;;;;5054803;28;20048;-65
2021/11/19 05:57:48;;;;;;;0.98;0.20;;;;;;;;;;5055904;28;20468;-65
2021/11/19 06:00:21;;;;;;;1.13;0.20;;;;;;;;;;5055542;28;20452;-66
2021/11/19 06:02:47;;;;;;;1.50;0.30;;;;;;;;;;5055324;28;20112;-65
2021/11/19 06:05:12;;;;;;;0.68;0.30;;;;;;;;;;5054318;28;20464;-65
2021/11/19 06:07:38;;;;;;;0.30;0.10;;;;;;;;;;5055837;28;20017;-65
2021/11/19 06:10:04;;;;;;;0.25;0.20;;;;;;;;;;5055189;28;20035;-65
2021/11/19 06:12:34;;;;;;;1.10;0.10;;;;;;;;;;5055466;28;20100;-66
2021/11/19 06:15:00;;;;;;;1.52;0.20;;;;;;;;;;5055391;28;20021;-65
2021/11/19 06:17:28;;;;;;;1.73;0.32;;;;;;;;;;5055354;28;20021;-65
2021/11/19 06:19:55;;;;;;;1.55;0.22;;;;;;;;;;5055477;28;20071;-66
2021/11/19 06:22:33;;;;;;;1.50;0.47;;;;;;;;;;5055357;28;20417;-65
2021/11/19 06:24:58;;;;;;;0.47;0.10;;;;;;;;;;5055035;28;20021;-65
2021/11/19 06:27:26;;;;;;;0.52;0.10;;;;;;;;;;5055386;28;20357;-66
2021/11/19 06:29:52;;;;;;;0.68;0.10;;;;;;;;;;5055275;28;20096;-65
2021/11/19 06:32:18;;;;;;;1.15;0.28;;;;;;;;;;5055275;28;20044;-66
2021/11/19 06:34:44;;;;;;;1.48;0.25;;;;;;;;;;5055101;28;20504;-65
2021/11/19 06:37:09;;;;;;;0.52;0.10;;;;;;;;;;5053678;28;20121;-65
2021/11/19 06:39:38;;;;;;;0.93;0.10;;;;;;;;;;5054993;28;20092;-66
2021/11/19 06:42:04;;;;;;;0.50;0.20;;;;;;;;;;5054750;28;20017;-66
2021/11/19 06:44:29;;;;;;;0.95;0.28;;;;;;;;;;5055234;28;20090;-66
2021/11/19 06:46:54;;;;;;;0.30;0.10;;;;;;;;;;5054957;28;20406;-65
2021/11/19 06:49:20;;;;;;;0.55;0.17;;;;;;;;;;5054945;28;20159;-65
2021/11/19 06:51:45;;;;;;;0.57;0.17;;;;;;;;;;5053767;28;20474;-67
2021/11/19 06:54:10;;;;;;;0.60;0.20;;;;;;;;;;5054404;28;20032;-65
2021/11/19 06:56:36;;;;;;;3.00;0.30;;;;;;;;;;5054913;28;20032;-65
2021/11/19 06:59:01;;;;;;;1.40;0.43;;;;;;;;;;5054444;28;20024;-65
2021/11/19 07:01:27;;;;;;;1.75;0.30;;;;;;;;;;5054349;28;20036;-66
2021/11/19 07:03:52;;;;;;;0.75;0.10;;;;;;;;;;5054445;28;20048;-67
2021/11/19 07:06:18;;;;;;;0.80;0.20;;;;;;;;;;5053850;28;20025;-65
2021/11/19 07:08:43;;;;;;;0.43;0.10;;;;;;;;;;5066728;28;20056;-65
2021/11/19 07:11:13;;;;;;;2.78;0.20;;;;;;;;;;5054210;28;20071;-65
2021/11/19 07:13:39;;;;;;;1.17;0.20;;;;;;;;;;5054460;28;20435;-65
2021/11/19 07:16:05;;;;;;;0.68;0.10;;;;;;;;;;5054075;28;20507;-66
2021/11/19 07:18:30;;;;;;;1.10;0.20;;;;;;;;;;5054347;28;20808;-65
2021/11/19 07:20:56;;;;;;;1.27;0.30;;;;;;;;;;5054219;28;20025;-66
2021/11/19 07:23:22;;;;;;;0.50;0.10;;;;;;;;;;5054394;28;20044;-65
2021/11/19 07:25:47;;;;;;;0.85;0.17;;;;;;;;;;5054181;28;20025;-65
2021/11/19 07:28:13;;;;;;;0.77;0.10;;;;;;;;;;5071672;28;20025;-66
2021/11/19 07:30:40;;;;;;;0.77;0.20;;;;;;;;;;5072807;28;20032;-65
2021/11/19 07:33:06;;;;;;;0.20;0.00;;;;;;;;;;5056771;28;20108;-66
2021/11/19 07:35:31;;;;;;;0.25;0.10;;;;;;;;;;5057196;28;20120;-66
2021/11/19 07:37:56;;;;;;;0.25;0.05;;;;;;;;;;5053604;28;20020;-66
2021/11/19 07:40:23;;;;;;;1.08;0.20;;;;;;;;;;5065469;28;20021;-65
2021/11/19 07:42:49;;;;;;;0.98;0.25;;;;;;;;;;5070372;28;20360;-65
2021/11/19 07:45:15;;;;;;;1.05;0.30;;;;;;;;;;5071174;28;20024;-65
2021/11/19 07:47:42;;;;;;;0.10;0.05;;;;;;;;;;5073909;28;20017;-65
2021/11/19 07:50:08;;;;;;;0.98;0.00;;;;;;;;;;5062422;28;20021;-65
2021/11/19 07:52:34;;;;;;;0.70;0.15;;;;;;;;;;5060985;28;20032;-65
2021/11/19 07:54:59;;;;;;;1.20;0.22;;;;;;;;;;5054555;28;20021;-65
2021/11/19 07:57:24;;;;;;;1.40;0.40;;;;;;;;;;5053741;28;20024;-65
2021/11/19 07:59:50;;;;;;;0.85;0.20;;;;;;;;;;5052624;28;20066;-65
2021/11/19 08:02:15;;;;;;;2.20;0.25;;;;;;;;;;5052824;28;20045;-64
2021/11/19 08:04:41;;;;;;;0.77;0.10;;;;;;;;;;5052576;28;20108;-65
2021/11/19 08:07:07;;;;;;;0.30;0.10;;;;;;;;;;5050686;28;20027;-65
2021/11/19 08:09:33;;;;;;;1.13;0.30;;;;;;;;;;5059970;28;20020;-65
2021/11/19 08:11:58;;;;;;;0.47;0.13;;;;;;;;;;5060127;28;20472;-65
2021/11/19 08:14:25;;;;;;;0.40;0.10;;;;;;;;;;5064514;28;20032;-65
2021/11/19 08:17:01;;;;;;;0.55;0.10;;;;;;;;;;5065793;28;20035;-65
2021/11/19 08:19:40;;;;;;;1.60;0.20;;;;;;;;;;5058172;28;20020;-65
2021/11/19 08:22:05;;;;;;;1.13;0.28;;;;;;;;;;5058363;28;20499;-65
2021/11/19 08:24:31;;;;;;;0.47;0.10;;;;;;;;;;5061474;28;20048;-65
2021/11/19 08:27:07;;;;;;;1.38;0.30;;;;;;;;;;5068000;28;20017;-65
2021/11/19 08:29:34;;;;;;;0.57;0.10;;;;;;;;;;5053371;28;20025;-65
2021/11/19 08:31:59;;;;;;;1.02;0.15;;;;;;;;;;5057217;28;20029;-65
2021/11/19 08:34:25;;;;;;;2.63;0.20;;;;;;;;;;5054039;28;20021;-65
2021/11/19 08:36:50;;;;;;;1.15;0.20;;;;;;;;;;5053900;28;20108;-65
2021/11/19 08:39:17;;;;;;;0.77;0.10;;;;;;;;;;5066400;28;20528;-65
2021/11/19 08:41:42;;;;;;;0.95;0.30;;;;;;;;;;5067807;28;20661;-65
2021/11/19 08:44:08;;;;;;;0.60;0.30;;;;;;;;;;5052475;28;20049;-64
2021/11/19 08:46:35;;;;;;;1.23;0.47;;;;;;;;;;5052916;28;20060;-64
2021/11/19 08:49:02;;;;;;;1.65;0.20;;;;;;;;;;5053779;28;20021;-64
2021/11/19 08:51:29;;;;;;;1.45;0.40;;;;;;;;;;5059634;28;20028;-65
2021/11/19 08:53:56;;;;;;;0.70;0.20;;;;;;;;;;5061763;28;20048;-64
2021/11/19 08:56:22;;;;;;;1.75;0.20;;;;;;;;;;5052915;28;20032;-65
2021/11/19 08:58:47;;;;;;;0.50;0.20;;;;;;;;;;5052920;28;20017;-64
2021/11/19 09:01:14;;;;;;;0.90;0.30;;;;;;;;;;5052466;28;20039;-65
2021/11/19 09:03:40;;;;;;;1.65;0.30;;;;;;;;;;5060220;28;20067;-65
2021/11/19 09:06:06;;;;;;;0.60;0.10;;;;;;;;;;5054418;28;20408;-65
2021/11/19 09:08:32;;;;;;;0.32;0.10;;;;;;;;;;5053771;28;20021;-65
2021/11/19 09:10:57;;;;;;;0.70;0.20;;;;;;;;;;5054795;28;20051;-65
2021/11/19 09:13:23;;;;;;;0.80;0.10;;;;;;;;;;5052715;28;20067;-65
2021/11/19 09:15:49;;;;;;;1.52;0.30;;;;;;;;;;5052437;28;20142;-64
2021/11/19 09:18:31;;;;;;;0.90;0.10;;;;;;;;;;5056830;28;20040;-65
2021/11/19 09:21:17;;;;;;;0.22;0.10;;;;;;;;;;5062380;28;20413;-65
2021/11/19 09:23:51;;;;;;;1.90;0.38;;;;;;;;;;5058377;28;20022;-65
2021/11/19 09:26:18;;;;;;;0.57;0.10;;;;;;;;;;5057279;28;20021;-65
2021/11/19 09:28:46;;;;;;;1.23;0.20;;;;;;;;;;5053692;28;20480;-65
2021/11/19 09:31:15;;;;;;;1.92;0.20;;;;;;;;;;5062680;28;20074;-65
2021/11/19 09:33:40;;;;;;;1.02;0.10;;;;;;;;;;5070939;28;20071;-65
2021/11/19 09:36:05;;;;;;;0.88;0.10;;;;;;;;;;5066958;28;20484;-65
2021/11/19 09:38:30;;;;;;;1.10;0.20;;;;;;;;;;5056117;28;20380;-65
2021/11/19 09:41:26;;;;;;;0.98;0.30;;;;;;;;;;5055823;28;20013;-65
2021/11/19 09:44:00;;;;;;;1.65;0.30;;;;;;;;;;4994482;28;20138;-65
2021/11/19 09:46:25;;;;;;;;;;;;;;;;;;4995148;28;20026;-64
2021/11/19 09:48:50;;;;;;;0.30;0.10;;;;;;;;;;4994557;28;19906;-65
2021/11/19 09:51:17;;;;;;;1.48;0.30;;;;;;;;;;4994655;28;20260;-64
2021/11/19 09:54:12;;;;;;;1.67;0.20;;;;;;;;;;4994268;28;20473;-64
2021/11/19 09:56:37;;;;;;;;;;;;;;;;;;4975426;28;20125;-64
2021/11/19 09:59:02;;;;;;;1.40;0.20;;;;;;;;;;4974676;28;19988;-64
2021/11/19 10:01:33;;;;;;;1.33;0.47;;;;;;;;;;4974711;28;20043;-64
2021/11/19 10:04:01;;;;;;;0.45;0.10;;;;;;;;;;4974563;28;20019;-65
2021/11/19 10:06:36;;;;;;;1.67;0.20;;;;;;;;;;4974520;28;20034;-64
2021/11/19 10:09:04;;;;;;;1.85;0.20;;;;;;;;;;4974597;28;20030;-64
2021/11/19 10:11:29;;;;;;;2.35;0.55;;;;;;;;;;4974677;28;20043;-65
2021/11/19 10:14:15;;;;;;;0.88;0.25;;;;;;;;;;4974650;28;20035;-64
2021/11/19 10:16:43;;;;;;;0.90;0.20;;;;;;;;;;4964555;28;20035;-64
2021/11/19 10:19:13;;;;;;;0.75;0.20;;;;;;;;;;4955724;28;20041;-65
2021/11/19 10:21:52;;;;;;;0.85;0.20;;;;;;;;;;4981823;28;20751;-64
2021/11/19 10:24:35;;;;;;;0.17;0.10;;;;;;;;;;5000790;28;20030;-64
2021/11/19 10:27:01;;;;;;;0.82;0.20;;;;;;;;;;5013214;28;20041;-65
2021/11/19 10:29:46;;;;;;;1.45;0.25;;;;;;;;;;5006379;28;20025;-64
2021/11/19 10:32:12;;;;;;;1.58;0.50;;;;;;;;;;5018801;28;20036;-64
2021/11/19 10:34:50;;;;;;;0.50;0.05;;;;;;;;;;5054230;28;20047;-65
2021/11/19 10:37:19;;;;;;;1.05;0.13;;;;;;;;;;5054343;28;20029;-64
2021/11/19 10:39:59;;;;;;;1.42;0.32;;;;;;;;;;5059725;28;20051;-65
2021/11/19 10:42:43;;;;;;;0.40;0.10;;;;;;;;;;5074170;28;20012;-64
2021/11/19 10:45:26;;;;;;;1.13;0.28;;;;;;;;;;5059010;28;20021;-64
2021/11/19 10:48:07;;;;;;;0.47;0.10;;;;;;;;;;5055447;28;20056;-65
2021/11/19 10:50:47;;;;;;;0.93;0.20;;;;;;;;;;5072350;28;20021;-64
2021/11/19 10:53:30;;;;;;;3.22;0.63;;;;;;;;;;5068796;28;20096;-65
2021/11/19 10:56:04;;;;;;;1.63;0.25;;;;;;;;;;5054573;28;20064;-64
2021/11/19 10:58:42;;;;;;;0.10;0.10;;;;;;;;;;5054881;28;20021;-64
2021/11/19 11:01:09;;;;;;;1.13;0.10;;;;;;;;;;5054398;28;20017;-65
2021/11/19 11:03:53;;;;;;;0.32;0.10;;;;;;;;;;5054615;28;20021;-65
2021/11/19 11:06:19;;;;;;;1.50;0.15;;;;;;;;;;5060311;28;20029;-64
2021/11/19 11:08:47;;;;;;;1.10;0.20;;;;;;;;;;5066951;28;20048;-64
2021/11/19 11:11:23;;;;;;;1.63;0.17;;;;;;;;;;5071026;28;20104;-64
2021/11/19 11:14:00;;;;;;;1.25;0.00;;;;;;;;;;5067721;28;20468;-64
2021/11/19 11:16:28;;;;;;;1.08;0.20;;;;;;;;;;5051558;28;20033;-65
2021/11/19 11:19:01;;;;;;;0.70;0.10;;;;;;;;;;5054467;28;20108;-64
2021/11/19 11:21:29;;;;;;;0.40;0.10;;;;;;;;;;5054135;28;20421;-64
2021/11/19 11:23:54;;;;;;;2.03;0.25;;;;;;;;;;5054241;28;20049;-65
2021/11/19 11:26:25;;;;;;;1.00;0.10;;;;;;;;;;5054009;28;20547;-64
2021/11/19 11:29:16;;;;;;;1.73;0.32;;;;;;;;;;5053925;28;20250;-64
2021/11/19 11:31:51;;;;;;;1.20;0.20;;;;;;;;;;5054011;28;20032;-65
2021/11/19 11:34:16;;;;;;;;;;;;;;;;;;5054361;28;20024;-64
2021/11/19 11:37:01;;;;;;;1.40;0.10;;;;;;;;;;5054212;28;19916;-64
2021/11/19 11:39:38;;;;;;;0.93;0.10;;;;;;;;;;5053285;28;20285;-65
2021/11/19 11:42:05;;;;;;;1.38;0.20;;;;;;;;;;5053877;28;20029;-65
2021/11/19 11:44:40;;;;;;;1.60;0.45;;;;;;;;;;5054052;28;20124;-64
2021/11/19 11:47:28;;;;;;;0.70;0.30;;;;;;;;;;5053889;28;20360;-64
2021/11/19 11:49:57;;;;;;;0.55;0.30;;;;;;;;;;5047656;28;20112;-65
2021/11/19 11:52:28;;;;;;;0.95;0.30;;;;;;;;;;5053505;28;20337;-64
2021/11/19 11:55:12;;;;;;;2.75;0.38;;;;;;;;;;5053468;28;20468;-64
2021/11/19 11:57:43;;;;;;;1.77;0.20;;;;;;;;;;5053569;28;20064;-64
2021/11/19 12:00:18;;;;;;;1.15;0.15;;;;;;;;;;5053459;28;20086;-64
2021/11/19 12:02:49;;;;;;;2.05;0.20;;;;;;;;;;5053166;28;20045;-65
2021/11/19 12:05:14;;;;;;;0.70;0.10;;;;;;;;;;5053234;28;20025;-64
2021/11/19 12:07:49;;;;;;;1.45;0.20;;;;;;;;;;5053490;28;20425;-65
2021/11/19 12:10:29;;;;;;;0.52;0.30;;;;;;;;;;5065565;28;20708;-64
2021/11/19 12:13:14;;;;;;;0.90;0.10;;;;;;;;;;5053309;28;20029;-64
2021/11/19 12:15:51;;;;;;;0.60;0.10;;;;;;;;;;5053049;28;20143;-66
2021/11/19 12:18:21;;;;;;;1.42;0.20;;;;;;;;;;5053240;28;20025;-65
2021/11/19 12:21:05;;;;;;;1.23;0.10;;;;;;;;;;5053381;28;20028;-64
2021/11/19 12:23:37;;;;;;;0.40;0.00;;;;;;;;;;5053361;28;20100;-64
2021/11/19 12:26:05;;;;;;;0.63;0.20;;;;;;;;;;5052849;28;20021;-65
2021/11/19 12:28:34;;;;;;;0.40;0.20;;;;;;;;;;5053250;28;20032;-64
2021/11/19 12:31:00;;;;;;;1.00;0.20;;;;;;;;;;5060409;28;20024;-65
2021/11/19 12:33:28;;;;;;;0.20;0.10;;;;;;;;;;5057953;28;20467;-65
2021/11/19 12:36:11;;;;;;;1.27;0.22;;;;;;;;;;5052719;28;20286;-64
2021/11/19 12:38:41;;;;;;;1.17;0.10;;;;;;;;;;5053167;28;20017;-65
2021/11/19 12:41:16;;;;;;;0.65;0.10;;;;;;;;;;5052923;28;20022;-65
2021/11/19 12:43:41;;;;;;;1.48;0.50;;;;;;;;;;5052640;28;20017;-64
2021/11/19 12:46:20;;;;;;;2.05;0.30;;;;;;;;;;5052915;28;20422;-65
2021/11/19 12:49:02;;;;;;;1.25;0.10;;;;;;;;;;5052792;28;20017;-64
2021/11/19 12:51:41;;;;;;;0.93;0.52;;;;;;;;;;5052832;28;20158;-64
2021/11/19 12:54:15;;;;;;;1.15;0.35;;;;;;;;;;5052768;28;20349;-65
2021/11/19 12:57:04;;;;;;;2.20;0.17;;;;;;;;;;5065158;28;20059;-64
2021/11/19 12:59:48;;;;;;;0.50;0.20;;;;;;;;;;5072977;28;20028;-65
2021/11/19 13:02:13;;;;;;;1.02;0.20;;;;;;;;;;5072356;28;20040;-65
2021/11/19 13:04:51;;;;;;;1.73;0.40;;;;;;;;;;5054148;28;20029;-65
2021/11/19 13:07:34;;;;;;;0.75;0.10;;;;;;;;;;5056685;28;20036;-65
2021/11/19 13:10:22;;;;;;;0.47;0.13;;;;;;;;;;5056420;28;20025;-65
2021/11/19 13:12:50;;;;;;;0.85;0.10;;;;;;;;;;5060017;28;20016;-64
2021/11/19 13:15:21;;;;;;;1.67;0.20;;;;;;;;;;5076489;28;20058;-65
2021/11/19 13:17:49;;;;;;;1.42;0.30;;;;;;;;;;5076668;28;20035;-65
2021/11/19 13:20:35;;;;;;;0.80;0.20;;;;;;;;;;5076279;28;20066;-65
2021/11/19 13:23:19;;;;;;;1.73;0.10;;;;;;;;;;5074153;28;20035;-65
2021/11/19 13:25:45;;;;;;;0.60;0.20;;;;;;;;;;5063415;28;20109;-65
2021/11/19 13:28:10;;;;;;;1.80;0.30;;;;;;;;;;5062927;28;20058;-65
2021/11/19 13:30:38;;;;;;;1.38;0.63;;;;;;;;;;5073535;28;20460;-65
2021/11/19 13:33:12;;;;;;;0.38;0.20;;;;;;;;;;5059378;28;20468;-65
2021/11/19 13:35:40;;;;;;;1.10;0.30;;;;;;;;;;5036358;28;20037;-64
2021/11/19 13:38:10;;;;;;;0.80;0.15;;;;;;;;;;5043750;28;20329;-65
2021/11/19 13:40:38;;;;;;;0.40;0.28;;;;;;;;;;5056220;28;20017;-65
2021/11/19 13:43:11;;;;;;;0.38;0.17;;;;;;;;;;5055806;28;20480;-64
2021/11/19 13:45:43;;;;;;;0.30;0.08;;;;;;;;;;5056283;28;20082;-64
2021/11/19 13:48:08;;;;;;;0.68;0.10;;;;;;;;;;5056041;28;20017;-65
2021/11/19 13:50:54;;;;;;;0.73;0.20;;;;;;;;;;5056110;28;20021;-65
2021/11/19 13:53:42;;;;;;;1.45;0.22;;;;;;;;;;5055648;28;20100;-64
2021/11/19 13:56:23;;;;;;;0.38;0.10;;;;;;;;;;5013657;28;20563;-65
2021/11/19 13:58:56;;;;;;;0.88;0.28;;;;;;;;;;5003871;28;20524;-65
2021/11/19 14:01:35;;;;;;;2.00;0.10;;;;;;;;;;5000245;28;20109;-65
2021/11/19 14:04:01;;;;;;;0.73;0.10;;;;;;;;;;5003232;28;20022;-64
2021/11/19 14:06:29;;;;;;;1.35;0.10;;;;;;;;;;5000794;28;20081;-65
2021/11/19 14:08:59;;;;;;;1.83;0.30;;;;;;;;;;5004125;28;20037;-63
2021/11/19 14:11:26;;;;;;;0.88;0.28;;;;;;;;;;4996093;28;20508;-64
2021/11/19 14:13:52;;;;;;;1.35;0.40;;;;;;;;;;5000096;28;20470;-64
2021/11/19 14:16:20;;;;;;;0.88;0.10;;;;;;;;;;4994708;28;20053;-64
2021/11/19 14:19:08;;;;;;;0.22;0.10;;;;;;;;;;5003664;28;20040;-64
2021/11/19 14:21:58;;;;;;;1.35;0.55;;;;;;;;;;5005350;28;20157;-65
2021/11/19 14:24:38;;;;;;;1.08;0.10;;;;;;;;;;4999890;28;20030;-64
2021/11/19 14:27:18;;;;;;;0.73;0.20;;;;;;;;;;5013305;28;20034;-64
2021/11/19 14:29:53;;;;;;;1.17;0.10;;;;;;;;;;5013312;28;20149;-64
2021/11/19 14:32:30;;;;;;;0.60;0.28;;;;;;;;;;5005471;28;20036;-64
2021/11/19 14:35:04;;;;;;;1.38;0.22;;;;;;;;;;5060421;28;20052;-65
2021/11/19 14:37:33;;;;;;;0.28;0.15;;;;;;;;;;5055234;28;20067;-64
2021/11/19 14:40:05;;;;;;;0.98;0.40;;;;;;;;;;5045500;28;20055;-64
2021/11/19 14:42:30;;;;;;;0.50;0.10;;;;;;;;;;5060725;28;20052;-64
2021/11/19 14:44:55;;;;;;;0.70;0.20;;;;;;;;;;5069870;28;20036;-64
2021/11/19 14:47:31;;;;;;;1.60;0.47;;;;;;;;;;5060808;28;20082;-65
2021/11/19 14:50:11;;;;;;;1.02;0.20;;;;;;;;;;5065772;28;20029;-64
2021/11/19 14:52:46;;;;;;;1.00;0.20;;;;;;;;;;5068029;28;20035;-64
2021/11/19 14:55:23;;;;;;;0.40;0.10;;;;;;;;;;5054936;28;20618;-64
2021/11/19 14:57:54;;;;;;;1.23;0.30;;;;;;;;;;5053878;28;20094;-64